createdAt,value
2019-02-18T00:02:25.227Z,101587.80
2019-02-18T00:06:30.650Z,101584.37
2019-02-18T00:10:36.437Z,101578.41
2019-02-18T00:14:42.256Z,101577.94
2019-02-18T00:18:47.713Z,101579.22
2019-02-18T00:22:53.532Z,101579.22
2019-02-18T00:26:58.907Z,101573.93
2019-02-18T00:31:04.269Z,101583.45
2019-02-18T00:35:09.695Z,101585.27
2019-02-18T00:39:15.227Z,101588.50
2019-02-18T00:43:20.611Z,101583.51
2019-02-18T00:47:26.070Z,101588.62
2019-02-18T00:51:31.333Z,101585.31
2019-02-18T00:55:36.764Z,101588.16
2019-02-18T00:59:42.189Z,101580.30
2019-02-18T01:03:47.643Z,101583.16
2019-02-18T01:07:53.047Z,101575.15
2019-02-18T01:11:58.929Z,101585.36
2019-02-18T01:16:04.366Z,101581.85
2019-02-18T01:20:11.155Z,101579.88
2019-02-18T01:24:16.524Z,101580.38
2019-02-18T01:28:21.988Z,101580.02
2019-02-18T01:32:27.333Z,101576.63
2019-02-18T01:36:32.717Z,101581.85
2019-02-18T01:40:38.091Z,101570.84
2019-02-18T01:44:43.480Z,101581.38
2019-02-18T01:48:48.868Z,101572.63
2019-02-18T01:52:54.203Z,101573.79
2019-02-18T01:57:00.273Z,101564.62
2019-02-18T02:01:07.613Z,101571.95
2019-02-18T02:05:14.953Z,101566.42
2019-02-18T02:09:20.381Z,101561.41
2019-02-18T02:13:37.211Z,101552.91
2019-02-18T02:17:42.626Z,101555.75
2019-02-18T02:21:48.006Z,101555.81
2019-02-18T02:25:53.339Z,101559.11
2019-02-18T02:29:59.162Z,101557.02
2019-02-18T02:34:04.591Z,101555.73
2019-02-18T02:38:10.020Z,101554.30
2019-02-18T02:42:15.729Z,101545.61
2019-02-18T02:46:21.058Z,101542.34
2019-02-18T02:50:26.501Z,101541.75
2019-02-18T02:54:32.019Z,101543.11
2019-02-18T02:58:37.461Z,101541.59
2019-02-18T03:02:42.944Z,101544.56
2019-02-18T03:06:48.373Z,101542.70
2019-02-18T03:10:53.977Z,101532.26
2019-02-18T03:14:59.332Z,101530.17
2019-02-18T03:19:04.673Z,101536.68
2019-02-18T03:23:10.048Z,101528.89
2019-02-18T03:27:15.403Z,101525.27
2019-02-18T03:31:25.745Z,101521.63
2019-02-18T03:35:31.180Z,101520.52
2019-02-18T03:39:36.387Z,101521.75
2019-02-18T03:43:42.002Z,101525.12
2019-02-18T03:47:47.445Z,101527.20
2019-02-18T03:51:53.077Z,101526.50
2019-02-18T03:55:58.618Z,101524.55
2019-02-18T04:00:04.855Z,101525.07
2019-02-18T04:04:10.340Z,101517.98
2019-02-18T04:08:16.245Z,101522.59
2019-02-18T04:12:21.595Z,101520.06
2019-02-18T04:16:27.324Z,101515.78
2019-02-18T04:20:32.984Z,101513.27
2019-02-18T04:24:38.779Z,101519.41
2019-02-18T04:28:44.123Z,101518.72
2019-02-18T04:32:49.513Z,101526.22
2019-02-18T04:36:54.798Z,101525.87
2019-02-18T04:41:00.849Z,101517.95
2019-02-18T04:45:07.052Z,101519.09
2019-02-18T04:49:12.643Z,101516.30
2019-02-18T04:53:17.991Z,101516.62
2019-02-18T04:57:23.381Z,101527.41
2019-02-18T05:01:28.807Z,101526.81
2019-02-18T05:05:34.088Z,101525.21
2019-02-18T05:09:40.210Z,101529.92
2019-02-18T05:14:04.930Z,101520.88
2019-02-18T05:18:10.281Z,101515.43
2019-02-18T05:22:15.710Z,101522.64
2019-02-18T05:26:21.151Z,101520.85
2019-02-18T05:30:26.459Z,101517.89
2019-02-18T05:34:31.645Z,101517.25
2019-02-18T05:38:36.896Z,101516.92
2019-02-18T05:42:42.337Z,101517.03
2019-02-18T05:46:47.600Z,101511.66
2019-02-18T05:50:52.939Z,101509.19
2019-02-18T05:54:58.217Z,101509.62
2019-02-18T05:59:03.622Z,101508.00
2019-02-18T06:03:09.053Z,101509.41
2019-02-18T06:07:14.831Z,101504.84
2019-02-18T06:11:20.345Z,101505.19
2019-02-18T06:15:25.588Z,101497.62
2019-02-18T06:19:31.389Z,101501.58
2019-02-18T06:23:36.953Z,101492.52
2019-02-18T06:27:42.308Z,101494.72
2019-02-18T06:31:47.474Z,101486.68
2019-02-18T06:35:53.368Z,101492.69
2019-02-18T06:39:58.735Z,101486.81
2019-02-18T06:44:04.090Z,101483.80
2019-02-18T06:48:23.497Z,101486.20
2019-02-18T06:52:29.150Z,101482.47
2019-02-18T06:57:02.762Z,101491.82
2019-02-18T07:01:19.008Z,101500.09
2019-02-18T07:05:33.607Z,101495.45
2019-02-18T07:09:51.708Z,101497.78
2019-02-18T07:13:57.198Z,101500.98
2019-02-18T07:18:02.622Z,101509.15
2019-02-18T07:22:08.434Z,101502.55
2019-02-18T07:26:13.831Z,101514.81
2019-02-18T07:30:19.765Z,101520.70
2019-02-18T07:34:25.534Z,101510.59
2019-02-18T07:38:31.071Z,101506.62
2019-02-18T07:42:36.337Z,101507.05
2019-02-18T07:46:42.312Z,101503.84
2019-02-18T07:50:47.727Z,101496.80
2019-02-18T07:54:53.399Z,101501.93
2019-02-18T07:58:58.752Z,101501.67
2019-02-18T08:03:04.033Z,101500.58
2019-02-18T08:07:09.638Z,101492.09
2019-02-18T08:11:14.940Z,101492.02
2019-02-18T08:15:20.381Z,101496.58
2019-02-18T08:19:25.744Z,101498.92
2019-02-18T08:23:31.098Z,101502.50
2019-02-18T08:27:36.768Z,101498.36
2019-02-18T08:31:42.204Z,101488.73
2019-02-18T08:35:47.562Z,101493.44
2019-02-18T08:39:52.922Z,101493.41
2019-02-18T08:43:58.315Z,101485.50
2019-02-18T08:48:04.181Z,101488.44
2019-02-18T08:52:09.814Z,101477.41
2019-02-18T08:56:15.269Z,101477.48
2019-02-18T09:00:21.168Z,101476.95
2019-02-18T09:04:28.155Z,101471.97
2019-02-18T09:08:34.066Z,101472.98
2019-02-18T09:12:39.974Z,101466.63
2019-02-18T09:16:45.327Z,101464.54
2019-02-18T09:20:50.652Z,101459.05
2019-02-18T09:25:07.564Z,101452.52
2019-02-18T09:29:12.983Z,101449.96
2019-02-18T09:33:18.346Z,101451.77
2019-02-18T09:37:24.074Z,101454.23
2019-02-18T09:41:29.571Z,101458.95
2019-02-18T09:45:35.076Z,101458.80
2019-02-18T09:49:40.732Z,101459.33
2019-02-18T09:53:46.004Z,101462.54
2019-02-18T09:57:51.727Z,101458.48
2019-02-18T10:01:57.105Z,101456.58
2019-02-18T10:06:02.612Z,101448.93
2019-02-18T10:10:08.380Z,101440.91
2019-02-18T10:14:13.792Z,101445.05
2019-02-18T10:18:19.223Z,101439.80
2019-02-18T10:22:24.573Z,101438.94
2019-02-18T10:26:30.021Z,101429.94
2019-02-18T10:30:35.297Z,101429.28
2019-02-18T10:34:40.831Z,101420.70
2019-02-18T10:38:46.187Z,101425.95
2019-02-18T10:42:51.633Z,101418.45
2019-02-18T10:46:57.096Z,101415.13
2019-02-18T10:51:02.850Z,101405.17
2019-02-18T10:55:08.968Z,101407.42
2019-02-18T10:59:14.793Z,101404.13
2019-02-18T11:03:20.672Z,101403.27
2019-02-18T11:07:26.137Z,101407.02
2019-02-18T11:11:31.551Z,101408.45
2019-02-18T11:15:36.919Z,101402.88
2019-02-18T11:19:42.347Z,101392.35
2019-02-18T11:23:47.737Z,101395.65
2019-02-18T11:27:53.107Z,101382.30
2019-02-18T11:32:00.429Z,101377.95
2019-02-18T11:36:05.881Z,101375.91
2019-02-18T11:40:13.945Z,101369.64
2019-02-18T11:44:19.655Z,101361.59
2019-02-18T11:48:25.003Z,101355.09
2019-02-18T11:52:30.725Z,101351.79
2019-02-18T11:56:36.518Z,101344.90
2019-02-18T12:00:42.042Z,101336.42
2019-02-18T12:04:47.410Z,101329.84
2019-02-18T12:08:52.836Z,101327.09
2019-02-18T12:12:58.651Z,101321.55
2019-02-18T12:17:04.081Z,101316.80
2019-02-18T12:21:09.545Z,101310.58
2019-02-18T12:25:15.113Z,101301.20
2019-02-18T12:29:26.133Z,101293.72
2019-02-18T12:33:28.616Z,101290.39
2019-02-18T12:37:34.376Z,101286.72
2019-02-18T12:41:48.324Z,101276.88
2019-02-18T12:45:47.032Z,101261.18
2019-02-18T12:49:52.913Z,101250.36
2019-02-18T12:54:04.936Z,101250.02
2019-02-18T12:58:06.105Z,101242.78
2019-02-18T13:02:11.546Z,101235.67
2019-02-18T13:06:17.004Z,101231.03
2019-02-18T13:10:22.507Z,101218.85
2019-02-18T13:14:27.942Z,101216.11
2019-02-18T13:18:33.370Z,101204.06
2019-02-18T13:22:38.823Z,101200.77
2019-02-18T13:26:44.274Z,101192.67
2019-02-18T13:30:49.640Z,101178.03
2019-02-18T13:34:55.057Z,101173.06
2019-02-18T13:39:00.496Z,101165.47
2019-02-18T13:43:06.229Z,101153.55
2019-02-18T13:47:11.631Z,101150.16
2019-02-18T13:51:24.061Z,101139.83
2019-02-18T13:55:24.553Z,101151.46
2019-02-18T13:59:29.998Z,101144.47
2019-02-18T14:03:35.663Z,101139.35
2019-02-18T14:07:41.029Z,101138.20
2019-02-18T14:11:46.806Z,101132.94
2019-02-18T14:15:52.244Z,101119.62
2019-02-18T14:19:58.185Z,101120.17
2019-02-18T14:24:03.555Z,101121.86
2019-02-18T14:28:08.907Z,101123.28
2019-02-18T14:32:14.576Z,101117.63
2019-02-18T14:36:20.012Z,101115.63
2019-02-18T14:40:25.841Z,101117.06
2019-02-18T14:44:31.274Z,101117.17
2019-02-18T14:48:36.888Z,101114.86
2019-02-18T14:52:42.615Z,101112.38
2019-02-18T14:56:48.047Z,101110.56
2019-02-18T15:00:53.667Z,101108.38
2019-02-18T15:04:59.074Z,101106.41
2019-02-18T15:09:05.636Z,101101.34
2019-02-18T15:13:11.063Z,101102.03
2019-02-18T15:17:16.522Z,101102.83
2019-02-18T15:21:21.717Z,101097.92
2019-02-18T15:25:27.267Z,101091.80
2019-02-18T15:29:32.695Z,101088.84
2019-02-18T15:33:38.165Z,101092.13
2019-02-18T15:37:43.953Z,101092.14
2019-02-18T15:41:49.440Z,101079.72
2019-02-18T15:45:55.611Z,101076.59
2019-02-18T15:50:01.280Z,101070.76
2019-02-18T15:54:08.115Z,101077.01
2019-02-18T15:58:13.546Z,101077.64
2019-02-18T16:02:19.074Z,101071.94
2019-02-18T16:06:24.875Z,101074.95
2019-02-18T16:10:30.701Z,101070.03
2019-02-18T16:14:36.229Z,101066.30
2019-02-18T16:18:42.022Z,101064.38
2019-02-18T16:22:47.659Z,101055.92
2019-02-18T16:26:53.521Z,101060.30
2019-02-18T16:30:59.132Z,101062.92
2019-02-18T16:35:04.844Z,101057.22
2019-02-18T16:39:10.990Z,101067.59
2019-02-18T16:43:16.445Z,101061.30
2019-02-18T16:47:21.898Z,101065.28
2019-02-18T16:51:27.490Z,101068.16
2019-02-18T16:55:32.874Z,101065.69
2019-02-18T16:59:38.122Z,101068.45
2019-02-18T17:03:43.559Z,101067.95
2019-02-18T17:07:48.999Z,101071.22
2019-02-18T17:11:54.440Z,101066.22
2019-02-18T17:15:59.719Z,101070.61
2019-02-18T17:20:05.891Z,101070.38
2019-02-18T17:24:11.589Z,101072.84
2019-02-18T17:28:17.091Z,101078.45
2019-02-18T17:32:22.559Z,101081.34
2019-02-18T17:36:27.932Z,101080.82
2019-02-18T17:40:34.104Z,101082.56
2019-02-18T17:44:41.718Z,101088.31
2019-02-18T17:48:47.342Z,101095.37
2019-02-18T17:52:53.166Z,101093.80
2019-02-18T17:56:59.194Z,101090.77
2019-02-18T18:01:04.616Z,101088.92
2019-02-18T18:05:10.537Z,101094.54
2019-02-18T18:09:16.222Z,101098.36
2019-02-18T18:13:25.094Z,101103.93
2019-02-18T18:17:29.181Z,101110.78
2019-02-18T18:21:35.197Z,101111.80
2019-02-18T18:25:40.904Z,101117.00
2019-02-18T18:29:46.523Z,101116.75
2019-02-18T18:33:52.268Z,101112.69
2019-02-18T18:37:57.823Z,101115.29
2019-02-18T18:42:03.381Z,101117.98
2019-02-18T18:46:08.927Z,101112.96
2019-02-18T18:50:16.964Z,101110.04
2019-02-18T18:54:22.720Z,101116.76
2019-02-18T18:58:28.147Z,101114.72
2019-02-18T19:02:33.544Z,101120.25
2019-02-18T19:06:38.905Z,101124.64
2019-02-18T19:10:44.311Z,101121.41
2019-02-18T19:14:49.761Z,101122.47
2019-02-18T19:18:55.197Z,101125.63
2019-02-18T19:23:01.657Z,101133.34
2019-02-18T19:27:07.070Z,101134.86
2019-02-18T19:31:12.604Z,101140.20
2019-02-18T19:35:18.375Z,101152.66
2019-02-18T19:39:23.806Z,101149.58
2019-02-18T19:43:29.187Z,101152.82
2019-02-18T19:47:35.032Z,101154.02
2019-02-18T19:51:40.503Z,101148.20
2019-02-18T19:55:46.061Z,101150.26
2019-02-18T19:59:51.530Z,101165.16
2019-02-18T20:03:57.361Z,101152.13
2019-02-18T20:08:02.812Z,101144.23
2019-02-18T20:12:08.221Z,101142.16
2019-02-18T20:16:13.643Z,101139.95
2019-02-18T20:20:19.021Z,101134.95
2019-02-18T20:24:24.447Z,101137.67
2019-02-18T20:28:29.877Z,101150.19
2019-02-18T20:32:35.356Z,101152.70
2019-02-18T20:36:41.891Z,101152.53
2019-02-18T20:40:47.883Z,101157.38
2019-02-18T20:44:53.226Z,101155.46
2019-02-18T20:48:58.684Z,101157.66
2019-02-18T20:53:04.122Z,101164.38
2019-02-18T20:57:09.508Z,101157.53
2019-02-18T21:01:14.867Z,101164.80
2019-02-18T21:05:20.665Z,101163.78
2019-02-18T21:09:26.132Z,101167.91
2019-02-18T21:13:31.610Z,101162.82
2019-02-18T21:17:37.389Z,101165.28
2019-02-18T21:21:43.159Z,101162.81
2019-02-18T21:25:48.512Z,101166.49
2019-02-18T21:29:54.017Z,101155.44
2019-02-18T21:33:59.485Z,101159.18
2019-02-18T21:38:04.965Z,101156.06
2019-02-18T21:42:12.432Z,101157.14
2019-02-18T21:46:17.881Z,101167.45
2019-02-18T21:50:23.341Z,101161.06
2019-02-18T21:54:28.805Z,101160.34
2019-02-18T21:58:34.501Z,101161.09
2019-02-18T22:02:40.171Z,101160.47
2019-02-18T22:06:45.619Z,101152.66
2019-02-18T22:10:51.050Z,101162.73
2019-02-18T22:14:56.867Z,101158.30
2019-02-18T22:19:02.196Z,101157.48
2019-02-18T22:23:07.655Z,101164.22
2019-02-18T22:27:13.381Z,101162.34
2019-02-18T22:31:18.834Z,101164.22
2019-02-18T22:35:24.208Z,101165.27
2019-02-18T22:39:29.555Z,101155.67
2019-02-18T22:43:34.982Z,101161.44
2019-02-18T22:47:40.677Z,101159.63
2019-02-18T22:51:46.131Z,101155.53
2019-02-18T22:55:51.497Z,101154.42
2019-02-18T22:59:57.201Z,101158.77
2019-02-18T23:04:02.706Z,101158.23
2019-02-18T23:08:08.143Z,101160.08
2019-02-18T23:12:13.478Z,101157.79
2019-02-18T23:16:19.249Z,101156.39
2019-02-18T23:20:24.670Z,101158.50
2019-02-18T23:24:30.461Z,101153.70
2019-02-18T23:28:35.817Z,101156.47
2019-02-18T23:32:41.440Z,101153.22
2019-02-18T23:36:47.241Z,101151.89
2019-02-18T23:40:52.597Z,101154.08
2019-02-18T23:44:59.481Z,101159.34
2019-02-18T23:49:05.101Z,101159.91
2019-02-18T23:53:10.887Z,101162.25
2019-02-18T23:57:16.067Z,101159.20
